Time;durP1;ratioP1;P1;durP2;ratioP2;P2;SDS_P1;SDS_P2;PMS_P1;PMS_P2;Temp;Humidity;BMP_temperature;BMP_pressure;BME280_temperature;BME280_humidity;BME280_pressure;Samples;Min_cycle;Max_cycle;Signal;HPM_P1;HPM_P2
2024/01/20 00:01:34;;;;;;;10.17;7.70;;;1.50;88.50;;;;;;5003282;28;20474;-85
2024/01/20 00:04:00;;;;;;;14.10;8.77;;;1.50;88.50;;;;;;5000387;28;20030;-86
2024/01/20 00:06:26;;;;;;;14.43;9.03;;;1.50;88.50;;;;;;5003728;28;20056;-85
2024/01/20 00:08:51;;;;;;;11.83;8.77;;;1.50;88.60;;;;;;5022725;28;20124;-85
2024/01/20 00:11:17;;;;;;;15.53;8.63;;;1.50;88.60;;;;;;5020605;28;20052;-85
2024/01/20 00:13:42;;;;;;;14.87;9.17;;;1.50;88.60;;;;;;5005348;28;20044;-86
2024/01/20 00:16:08;;;;;;;13.27;8.37;;;1.40;88.50;;;;;;5023430;28;20405;-85
2024/01/20 00:18:34;;;;;;;14.00;9.40;;;1.40;88.60;;;;;;5004535;28;20073;-85
2024/01/20 00:20:59;;;;;;;13.70;9.47;;;1.40;88.60;;;;;;5008423;28;20040;-85
2024/01/20 00:23:25;;;;;;;13.10;9.03;;;1.50;88.60;;;;;;5008042;28;20050;-86
2024/01/20 00:25:50;;;;;;;14.33;9.30;;;1.40;88.60;;;;;;5022791;28;20364;-85
2024/01/20 00:28:18;;;;;;;13.20;9.67;;;1.40;88.60;;;;;;5020276;28;20154;-85
2024/01/20 00:30:43;;;;;;;16.87;10.30;;;1.40;88.60;;;;;;5007465;28;20034;-85
2024/01/20 00:33:09;;;;;;;14.70;9.37;;;1.40;88.70;;;;;;4999864;28;20030;-85
2024/01/20 00:35:36;;;;;;;13.80;9.83;;;1.40;88.70;;;;;;5016484;28;20042;-85
2024/01/20 00:38:03;;;;;;;14.63;10.53;;;1.40;88.80;;;;;;5001842;28;20033;-85
2024/01/20 00:40:29;;;;;;;17.27;11.13;;;1.40;88.80;;;;;;5004731;28;20060;-85
2024/01/20 00:42:54;;;;;;;14.93;10.87;;;1.40;88.90;;;;;;5003373;28;20493;-85
2024/01/20 00:45:20;;;;;;;13.90;9.63;;;1.40;88.90;;;;;;5003364;28;20080;-86
2024/01/20 00:47:46;;;;;;;17.80;11.33;;;1.40;88.90;;;;;;5004881;28;20042;-85
2024/01/20 00:50:12;;;;;;;17.57;10.63;;;1.40;89.00;;;;;;5017352;28;20038;-86
2024/01/20 00:52:37;;;;;;;13.47;10.90;;;1.40;89.00;;;;;;5035619;28;20041;-86
2024/01/20 00:55:04;;;;;;;14.30;11.27;;;1.40;89.00;;;;;;5001866;28;20037;-86
2024/01/20 00:57:29;;;;;;;13.40;11.00;;;1.40;89.00;;;;;;5004411;28;20103;-86
2024/01/20 00:59:56;;;;;;;21.17;11.60;;;1.40;89.00;;;;;;5020836;28;20061;-84
2024/01/20 01:02:23;;;;;;;18.80;11.30;;;1.40;89.00;;;;;;5003166;28;20034;-85
2024/01/20 01:04:49;;;;;;;14.07;11.07;;;1.40;89.00;;;;;;5006827;28;20088;-84
2024/01/20 01:07:15;;;;;;;12.17;10.30;;;1.40;88.90;;;;;;5003466;28;20485;-84
2024/01/20 01:09:40;;;;;;;16.27;11.40;;;2.10;89.40;;;;;;5021372;28;20087;-84
2024/01/20 01:12:06;;;;;;;15.73;10.27;;;1.40;89.00;;;;;;5003069;28;20042;-84
2024/01/20 01:14:32;;;;;;;15.73;11.23;;;1.40;88.90;;;;;;5010793;28;20045;-84
2024/01/20 01:16:57;;;;;;;16.47;10.93;;;1.40;88.90;;;;;;5021579;28;20046;-84
2024/01/20 01:19:23;;;;;;;15.53;11.17;;;1.40;88.80;;;;;;5008740;28;20048;-84
2024/01/20 01:21:48;;;;;;;15.97;11.60;;;1.40;88.80;;;;;;5006873;28;20127;-84
2024/01/20 01:24:15;;;;;;;15.77;11.97;;;1.40;88.80;;;;;;5007269;28;20030;-84
2024/01/20 01:26:40;;;;;;;20.37;12.57;;;1.30;88.70;;;;;;5007505;28;20049;-84
2024/01/20 01:29:06;;;;;;;18.03;11.93;;;1.30;88.70;;;;;;5040922;28;20041;-84
2024/01/20 01:31:32;;;;;;;15.60;11.30;;;1.30;88.70;;;;;;5005573;28;20060;-84
2024/01/20 01:33:59;;;;;;;18.00;12.07;;;1.30;88.70;;;;;;5026505;28;20069;-84
2024/01/20 01:36:24;;;;;;;16.80;12.43;;;1.30;88.70;;;;;;5014639;28;20034;-84
2024/01/20 01:38:50;;;;;;;17.67;12.93;;;1.30;88.70;;;;;;5002509;28;20420;-84
2024/01/20 01:41:16;;;;;;;17.33;13.43;;;1.30;88.70;;;;;;5022936;28;20041;-84
2024/01/20 01:43:41;;;;;;;16.97;12.13;;;1.30;88.70;;;;;;5007839;28;20105;-84
2024/01/20 01:46:07;;;;;;;17.53;13.13;;;1.30;88.70;;;;;;5004832;28;20045;-84
2024/01/20 01:48:33;;;;;;;18.57;12.70;;;1.20;88.70;;;;;;5002544;28;20053;-85
2024/01/20 01:51:05;;;;;;;20.80;14.57;;;1.30;88.80;;;;;;5000730;28;20042;-84
2024/01/20 01:53:34;;;;;;;17.57;13.20;;;1.20;88.70;;;;;;5019355;28;20030;-84
2024/01/20 01:56:00;;;;;;;20.37;14.23;;;1.20;88.80;;;;;;5003681;28;20054;-84
2024/01/20 01:58:27;;;;;;;23.13;15.20;;;1.20;88.70;;;;;;5022369;28;20505;-84
2024/01/20 02:00:54;;;;;;;25.77;15.97;;;1.20;88.80;;;;;;5003073;28;20034;-85
2024/01/20 02:03:19;;;;;;;18.90;13.70;;;1.20;88.80;;;;;;5001248;28;20033;-84
2024/01/20 02:05:45;;;;;;;23.90;14.80;;;1.30;88.90;;;;;;4999815;28;20102;-84
2024/01/20 02:08:11;;;;;;;26.23;17.13;;;1.20;88.90;;;;;;5021117;28;20073;-85
2024/01/20 02:10:39;;;;;;;26.37;16.87;;;1.20;88.90;;;;;;5003608;28;20034;-84
2024/01/20 02:13:06;;;;;;;24.23;17.13;;;1.20;89.00;;;;;;5006297;28;20040;-84
2024/01/20 02:15:33;;;;;;;23.80;16.63;;;1.20;89.00;;;;;;5022097;28;20112;-84
2024/01/20 02:17:58;;;;;;;26.07;17.63;;;1.20;89.00;;;;;;5005052;28;20488;-84
2024/01/20 02:20:24;;;;;;;24.53;16.93;;;1.20;89.10;;;;;;5020845;28;20068;-84
2024/01/20 02:22:50;;;;;;;28.70;19.53;;;1.20;89.10;;;;;;5003659;28;20112;-84
2024/01/20 02:25:16;;;;;;;24.73;17.97;;;1.20;89.20;;;;;;5004919;28;20137;-84
2024/01/20 02:27:42;;;;;;;23.60;17.73;;;1.20;89.20;;;;;;5010537;28;20029;-84
2024/01/20 02:30:08;;;;;;;22.53;18.03;;;1.20;89.20;;;;;;5010574;28;20501;-84
2024/01/20 02:32:34;;;;;;;25.13;17.93;;;1.20;89.20;;;;;;5012338;28;20473;-84
2024/01/20 02:34:59;;;;;;;23.17;16.70;;;1.20;89.20;;;;;;5013551;28;20049;-84
2024/01/20 02:37:25;;;;;;;22.73;17.37;;;1.20;89.20;;;;;;5027931;28;20049;-84
2024/01/20 02:39:50;;;;;;;25.30;17.27;;;1.20;89.30;;;;;;5009242;28;20088;-84
2024/01/20 02:42:16;;;;;;;26.57;17.87;;;1.20;89.20;;;;;;5026027;28;20044;-84
2024/01/20 02:44:42;;;;;;;28.03;17.67;;;1.20;89.20;;;;;;5008241;28;20034;-84
2024/01/20 02:47:08;;;;;;;24.53;17.53;;;1.20;89.20;;;;;;5010625;28;20430;-84
2024/01/20 02:49:34;;;;;;;22.93;17.73;;;1.20;89.20;;;;;;5006159;28;20108;-84
2024/01/20 02:52:01;;;;;;;24.37;18.00;;;1.20;89.20;;;;;;5005931;28;20050;-84
2024/01/20 02:54:26;;;;;;;24.63;17.83;;;1.20;89.20;;;;;;5026993;28;20472;-84
2024/01/20 02:56:52;;;;;;;26.10;19.00;;;1.20;89.10;;;;;;5025335;28;20034;-84
2024/01/20 02:59:17;;;;;;;23.53;18.90;;;1.20;89.10;;;;;;5025324;28;20049;-84
2024/01/20 03:01:43;;;;;;;25.13;18.60;;;1.10;89.00;;;;;;5006048;28;20125;-84
2024/01/20 03:04:09;;;;;;;25.47;18.37;;;1.10;89.00;;;;;;5025041;28;20029;-84
2024/01/20 03:06:34;;;;;;;26.73;17.83;;;1.20;89.00;;;;;;5010926;28;20508;-84
2024/01/20 03:09:00;;;;;;;27.50;17.63;;;1.20;89.00;;;;;;5010954;28;20041;-84
2024/01/20 03:11:25;;;;;;;26.97;18.10;;;1.10;88.90;;;;;;5012397;28;20083;-84
2024/01/20 03:13:51;;;;;;;26.47;19.23;;;1.20;89.00;;;;;;5028315;28;20049;-84
2024/01/20 03:16:17;;;;;;;26.97;17.30;;;1.10;88.90;;;;;;5031091;28;20052;-84
2024/01/20 03:18:42;;;;;;;27.47;18.50;;;1.10;88.90;;;;;;5030884;28;20045;-84
2024/01/20 03:21:08;;;;;;;28.27;19.20;;;1.10;88.90;;;;;;5043499;28;20477;-84
2024/01/20 03:23:34;;;;;;;25.00;18.60;;;1.10;88.80;;;;;;5010083;28;20041;-84
2024/01/20 03:26:10;;;;;;;28.80;18.40;;;1.10;88.80;;;;;;5008964;28;20080;-85
2024/01/20 03:28:37;;;;;;;25.03;18.13;;;1.10;88.80;;;;;;5026277;28;20429;-84
2024/01/20 03:31:03;;;;;;;27.93;18.97;;;1.10;88.80;;;;;;5027819;28;20033;-84
2024/01/20 03:33:29;;;;;;;26.20;18.80;;;1.10;88.80;;;;;;5008930;28;20041;-84
2024/01/20 03:35:54;;;;;;;29.77;19.90;;;1.10;88.80;;;;;;5007466;28;20034;-84
2024/01/20 03:38:20;;;;;;;24.13;18.57;;;1.10;88.80;;;;;;5021951;28;20038;-84
2024/01/20 03:40:46;;;;;;;26.37;19.07;;;1.10;88.80;;;;;;5008073;28;20145;-84
2024/01/20 03:43:11;;;;;;;30.47;19.07;;;1.10;88.80;;;;;;5025383;28;20117;-84
2024/01/20 03:45:43;;;;;;;27.67;18.80;;;1.10;88.80;;;;;;5010605;28;20046;-84
2024/01/20 03:48:08;;;;;;;29.07;19.47;;;1.10;88.90;;;;;;5028975;28;20133;-84
2024/01/20 03:50:34;;;;;;;30.77;18.97;;;1.10;88.80;;;;;;5011135;28;20076;-84
2024/01/20 03:53:00;;;;;;;26.37;18.03;;;1.10;88.80;;;;;;5029470;28;20046;-84
2024/01/20 03:55:26;;;;;;;29.57;19.23;;;1.10;88.90;;;;;;5013488;28;20038;-84
2024/01/20 03:57:51;;;;;;;27.30;19.17;;;1.00;88.90;;;;;;5012206;28;20037;-83
2024/01/20 04:00:17;;;;;;;27.77;19.00;;;1.10;88.90;;;;;;5024426;28;20606;-83
2024/01/20 04:02:43;;;;;;;27.27;18.13;;;1.00;88.90;;;;;;5008296;28;20052;-84
2024/01/20 04:05:09;;;;;;;31.17;19.57;;;1.10;88.90;;;;;;5024570;28;20022;-83
2024/01/20 04:07:35;;;;;;;35.87;18.60;;;1.10;88.90;;;;;;5012675;28;20029;-84
2024/01/20 04:10:00;;;;;;;31.50;19.43;;;1.00;88.80;;;;;;5013424;28;20093;-84
2024/01/20 04:12:26;;;;;;;31.03;19.33;;;1.10;88.90;;;;;;5011620;28;20065;-84
2024/01/20 04:14:51;;;;;;;32.70;20.37;;;1.00;88.80;;;;;;5025638;28;20374;-84
2024/01/20 04:17:17;;;;;;;28.37;18.93;;;1.00;88.80;;;;;;5009243;28;20042;-83
2024/01/20 04:19:43;;;;;;;30.43;19.37;;;1.00;88.80;;;;;;5011553;28;20053;-84
2024/01/20 04:22:08;;;;;;;33.57;20.77;;;1.00;88.70;;;;;;5030581;28;20037;-83
2024/01/20 04:24:35;;;;;;;29.83;19.23;;;1.00;88.70;;;;;;5046208;28;20100;-84
2024/01/20 04:27:01;;;;;;;34.13;21.33;;;1.00;88.60;;;;;;5009422;28;20076;-84
2024/01/20 04:29:26;;;;;;;35.97;21.47;;;1.00;88.60;;;;;;5008671;28;20030;-84
2024/01/20 04:31:52;;;;;;;34.90;21.03;;;1.00;88.50;;;;;;5028562;28;20034;-84
2024/01/20 04:34:18;;;;;;;30.53;19.90;;;1.00;88.50;;;;;;5017891;28;20417;-84
2024/01/20 04:36:43;;;;;;;30.53;19.77;;;0.90;88.40;;;;;;5020377;28;20123;-84
2024/01/20 04:39:09;;;;;;;29.77;19.17;;;1.00;88.40;;;;;;5022068;28;20038;-83
2024/01/20 04:41:34;;;;;;;35.60;21.13;;;1.00;88.40;;;;;;5003242;28;20037;-84
2024/01/20 04:44:00;;;;;;;35.53;20.33;;;1.00;88.30;;;;;;5006732;28;20049;-83
2024/01/20 04:46:25;;;;;;;32.13;19.23;;;0.90;88.30;;;;;;5007641;28;20045;-84
2024/01/20 04:48:51;;;;;;;35.60;21.80;;;0.90;88.20;;;;;;5022123;28;20049;-83
2024/01/20 04:51:17;;;;;;;39.13;20.80;;;1.50;88.50;;;;;;5024619;28;20046;-83
2024/01/20 04:53:42;;;;;;;38.10;21.27;;;0.90;88.10;;;;;;5007241;28;20038;-83
2024/01/20 04:56:08;;;;;;;38.07;22.30;;;0.80;88.00;;;;;;5012006;28;20052;-83
2024/01/20 04:58:34;;;;;;;36.97;23.30;;;0.80;88.10;;;;;;5006730;28;20489;-84
2024/01/20 05:00:59;;;;;;;39.33;23.67;;;0.90;88.10;;;;;;4985000;28;20073;-83
2024/01/20 05:03:25;;;;;;;38.37;21.00;;;0.80;88.00;;;;;;5002224;28;20382;-83
2024/01/20 05:05:50;;;;;;;38.67;22.37;;;0.80;87.90;;;;;;5007459;28;20448;-83
2024/01/20 05:08:16;;;;;;;37.43;21.50;;;0.80;87.90;;;;;;5007085;28;20042;-84
2024/01/20 05:10:42;;;;;;;40.60;22.90;;;0.80;87.90;;;;;;5007575;28;20061;-84
2024/01/20 05:13:07;;;;;;;40.13;22.93;;;0.80;87.90;;;;;;5024576;28;20523;-84
2024/01/20 05:15:33;;;;;;;42.77;23.70;;;0.80;87.90;;;;;;5010830;28;20041;-84
2024/01/20 05:17:59;;;;;;;41.80;24.10;;;0.80;87.90;;;;;;5009162;28;20123;-84
2024/01/20 05:20:24;;;;;;;40.23;23.43;;;0.70;87.80;;;;;;5013442;28;20052;-84
2024/01/20 05:22:50;;;;;;;43.70;24.37;;;0.70;87.90;;;;;;4992388;28;20042;-84
2024/01/20 05:25:15;;;;;;;38.80;24.20;;;0.70;87.80;;;;;;5023404;28;20068;-84
2024/01/20 05:27:41;;;;;;;43.53;24.13;;;0.70;87.80;;;;;;5029414;28;20101;-84
2024/01/20 05:30:07;;;;;;;48.07;26.40;;;0.70;87.90;;;;;;5016006;28;20042;-84
2024/01/20 05:32:33;;;;;;;37.13;23.03;;;0.70;87.80;;;;;;5042306;28;20400;-84
2024/01/20 05:34:59;;;;;;;42.40;23.67;;;0.70;87.80;;;;;;5011674;28;20037;-84
2024/01/20 05:37:25;;;;;;;43.17;24.40;;;0.70;87.80;;;;;;5012729;28;20037;-84
2024/01/20 05:39:53;;;;;;;42.90;23.97;;;0.60;87.80;;;;;;5033356;28;20056;-84
2024/01/20 05:42:19;;;;;;;47.23;23.87;;;0.60;87.80;;;;;;5029174;28;20042;-84
2024/01/20 05:44:44;;;;;;;42.53;24.43;;;0.60;87.80;;;;;;5006657;28;20401;-84
2024/01/20 05:47:10;;;;;;;40.27;23.00;;;0.60;87.80;;;;;;5022787;28;20038;-84
2024/01/20 05:49:35;;;;;;;43.57;24.20;;;0.60;87.80;;;;;;5004500;28;20052;-84
2024/01/20 05:52:01;;;;;;;42.30;24.53;;;0.60;87.80;;;;;;5022877;28;20073;-84
2024/01/20 05:54:27;;;;;;;51.57;27.10;;;0.60;87.80;;;;;;5036297;28;20045;-84
2024/01/20 05:56:53;;;;;;;42.60;24.17;;;0.60;87.80;;;;;;5023609;28;20043;-84
2024/01/20 05:59:18;;;;;;;41.87;23.60;;;0.60;87.80;;;;;;5024595;28;20041;-84
2024/01/20 06:01:50;;;;;;;41.87;24.00;;;0.60;87.80;;;;;;5007106;28;20044;-84
2024/01/20 06:04:17;;;;;;;43.87;23.40;;;0.60;87.90;;;;;;5023343;28;20497;-84
2024/01/20 06:06:46;;;;;;;45.03;23.30;;;0.50;87.80;;;;;;5023909;28;20037;-84
2024/01/20 06:09:11;;;;;;;40.57;23.83;;;0.50;87.90;;;;;;5023155;28;20037;-84
2024/01/20 06:11:37;;;;;;;44.73;23.50;;;0.50;87.80;;;;;;5010385;28;20328;-84
2024/01/20 06:14:03;;;;;;;41.80;22.50;;;0.50;87.90;;;;;;5006235;28;20037;-84
2024/01/20 06:16:28;;;;;;;43.67;22.83;;;0.50;87.90;;;;;;5024294;28;20045;-84
2024/01/20 06:18:54;;;;;;;39.63;22.87;;;0.50;87.90;;;;;;5024630;28;20050;-85
2024/01/20 06:21:21;;;;;;;39.90;23.40;;;0.50;87.90;;;;;;5006417;28;20053;-84
2024/01/20 06:23:51;;;;;;;46.63;23.50;;;0.50;87.90;;;;;;5007362;28;20048;-84
2024/01/20 06:26:17;;;;;;;43.27;23.60;;;0.50;88.00;;;;;;5010680;28;20415;-84
2024/01/20 06:28:43;;;;;;;46.50;25.00;;;0.50;87.90;;;;;;5028696;28;20045;-84
2024/01/20 06:31:09;;;;;;;41.93;22.53;;;0.50;87.90;;;;;;5033561;28;20540;-84
2024/01/20 06:33:35;;;;;;;43.43;24.63;;;0.50;88.00;;;;;;5011642;28;20050;-84
2024/01/20 06:36:00;;;;;;;38.43;22.90;;;0.50;88.00;;;;;;5026310;28;20037;-84
2024/01/20 06:38:28;;;;;;;44.70;24.47;;;0.50;88.00;;;;;;5025548;28;20459;-85
2024/01/20 06:40:54;;;;;;;39.27;22.80;;;0.50;88.00;;;;;;5005915;28;20121;-84
2024/01/20 06:43:19;;;;;;;43.30;23.63;;;0.50;88.10;;;;;;5035601;28;20076;-84
2024/01/20 06:45:46;;;;;;;40.67;22.73;;;0.50;88.10;;;;;;5019753;28;20097;-85
2024/01/20 06:48:12;;;;;;;39.87;23.70;;;0.50;88.10;;;;;;5001687;28;20432;-85
2024/01/20 06:50:43;;;;;;;43.73;23.93;;;0.50;88.20;;;;;;5003441;28;20088;-84
2024/01/20 06:53:10;;;;;;;45.50;25.60;;;0.50;88.20;;;;;;4998896;28;20034;-84
2024/01/20 06:55:36;;;;;;;42.93;22.23;;;0.50;88.20;;;;;;5014557;28;20160;-84
2024/01/20 06:58:03;;;;;;;35.30;22.23;;;0.40;88.20;;;;;;4998451;28;20504;-84
2024/01/20 07:00:28;;;;;;;41.40;23.97;;;0.50;88.20;;;;;;5000905;28;20049;-84
2024/01/20 07:02:54;;;;;;;38.97;21.93;;;0.50;88.20;;;;;;5018348;28;20037;-84
2024/01/20 07:05:20;;;;;;;42.93;22.90;;;0.50;88.20;;;;;;4999977;28;20137;-84
2024/01/20 07:07:45;;;;;;;39.20;21.87;;;0.50;88.20;;;;;;5022296;28;20053;-84
2024/01/20 07:10:11;;;;;;;36.37;20.70;;;0.50;88.10;;;;;;5018139;28;20049;-85
2024/01/20 07:12:37;;;;;;;40.40;22.63;;;0.50;88.20;;;;;;5001089;28;20030;-84
2024/01/20 07:15:03;;;;;;;38.73;22.60;;;0.40;88.10;;;;;;5001906;28;20526;-85
2024/01/20 07:17:29;;;;;;;39.73;21.73;;;0.40;88.20;;;;;;4996384;28;20040;-85
2024/01/20 07:19:54;;;;;;;45.63;23.47;;;0.40;88.20;;;;;;5001643;28;20116;-85
2024/01/20 07:22:20;;;;;;;36.73;21.23;;;0.40;88.20;;;;;;5003952;28;20128;-85
2024/01/20 07:24:46;;;;;;;39.37;21.33;;;0.40;88.20;;;;;;5002951;28;20040;-84
2024/01/20 07:27:11;;;;;;;42.73;23.83;;;0.40;88.30;;;;;;5000776;28;20117;-85
2024/01/20 07:29:37;;;;;;;38.73;21.10;;;0.40;88.30;;;;;;5000911;28;20066;-81
2024/01/20 07:32:06;;;;;;;37.73;21.60;;;0.40;88.40;;;;;;5014745;28;20048;-80
2024/01/20 07:34:32;;;;;;;37.37;20.80;;;0.40;88.40;;;;;;5018076;28;20103;-80
2024/01/20 07:36:57;;;;;;;38.43;22.33;;;0.40;88.40;;;;;;5017770;28;20042;-80
2024/01/20 07:39:23;;;;;;;40.67;22.77;;;0.40;88.50;;;;;;5017973;28;20521;-80
2024/01/20 07:41:48;;;;;;;42.03;22.73;;;0.40;88.60;;;;;;5018459;28;20089;-80
2024/01/20 07:44:14;;;;;;;42.27;22.30;;;0.40;88.80;;;;;;5005735;28;20043;-80
2024/01/20 07:46:40;;;;;;;41.00;22.27;;;0.40;88.80;;;;;;5017274;28;20053;-80
2024/01/20 07:49:05;;;;;;;41.77;22.80;;;0.50;88.90;;;;;;5028241;28;20044;-80
2024/01/20 07:51:31;;;;;;;39.43;21.07;;;0.40;89.00;;;;;;5043319;28;20084;-80
2024/01/20 07:53:58;;;;;;;40.77;21.47;;;0.50;89.00;;;;;;5021779;28;20038;-81
2024/01/20 07:56:23;;;;;;;40.33;21.00;;;0.50;89.10;;;;;;5018803;28;20501;-83
2024/01/20 07:58:49;;;;;;;39.93;21.27;;;0.40;89.00;;;;;;5019853;28;20041;-80
2024/01/20 08:01:17;;;;;;;35.77;20.10;;;0.40;89.00;;;;;;5024516;28;20409;-81
2024/01/20 08:03:43;;;;;;;37.70;21.40;;;0.40;89.50;;;;;;5006608;28;20044;-81
2024/01/20 08:06:09;;;;;;;34.70;20.03;;;0.40;89.10;;;;;;5018717;28;20043;-81
2024/01/20 08:08:34;;;;;;;39.47;21.43;;;0.40;89.10;;;;;;5021704;28;20072;-81
2024/01/20 08:11:00;;;;;;;39.67;21.30;;;0.40;89.20;;;;;;5008014;28;20038;-81
2024/01/20 08:13:26;;;;;;;41.83;21.47;;;0.40;89.30;;;;;;5020159;28;20497;-81
2024/01/20 08:15:52;;;;;;;40.93;21.53;;;0.30;89.40;;;;;;5004835;28;20045;-82
2024/01/20 08:18:18;;;;;;;42.87;21.97;;;0.30;89.50;;;;;;5024229;28;20042;-81
2024/01/20 08:20:43;;;;;;;39.73;20.83;;;0.30;89.70;;;;;;5006702;28;20409;-81
2024/01/20 08:23:09;;;;;;;42.83;22.60;;;0.40;89.80;;;;;;5023325;28;20073;-82
2024/01/20 08:25:35;;;;;;;44.43;22.63;;;0.40;89.90;;;;;;5024763;28;20037;-81
2024/01/20 08:28:01;;;;;;;37.53;21.40;;;0.30;89.90;;;;;;5022470;28;20124;-81
2024/01/20 08:30:26;;;;;;;36.87;20.43;;;0.40;90.00;;;;;;5025130;28;20034;-81
2024/01/20 08:32:52;;;;;;;40.93;20.93;;;0.30;90.00;;;;;;5008498;28;20060;-81
2024/01/20 08:35:17;;;;;;;38.77;20.97;;;0.40;90.00;;;;;;5028761;28;20095;-81
2024/01/20 08:37:43;;;;;;;41.20;20.70;;;0.40;90.10;;;;;;5025339;28;20037;-82
2024/01/20 08:40:09;;;;;;;39.43;21.77;;;0.40;90.10;;;;;;5009337;28;20608;-81
2024/01/20 08:42:34;;;;;;;35.43;20.47;;;0.40;90.10;;;;;;5027514;28;20063;-81
2024/01/20 08:45:02;;;;;;;42.20;21.47;;;0.40;90.10;;;;;;5007816;28;20439;-81
2024/01/20 08:47:27;;;;;;;37.33;20.43;;;0.40;90.10;;;;;;5022915;28;20060;-81
2024/01/20 08:49:53;;;;;;;38.87;21.07;;;0.50;90.10;;;;;;5034627;28;20065;-80
2024/01/20 08:52:19;;;;;;;37.70;21.10;;;0.50;90.10;;;;;;5023178;28;20045;-80
2024/01/20 08:54:44;;;;;;;39.23;20.90;;;0.50;90.10;;;;;;5013871;28;20043;-80
2024/01/20 08:57:10;;;;;;;36.33;19.13;;;0.50;90.10;;;;;;5031909;28;20037;-81
2024/01/20 08:59:36;;;;;;;42.67;20.23;;;0.50;90.10;;;;;;5036080;28;20390;-81
2024/01/20 09:02:03;;;;;;;38.27;19.20;;;0.50;90.10;;;;;;5024775;28;20056;-81
2024/01/20 09:04:29;;;;;;;39.37;20.97;;;0.40;90.10;;;;;;5025125;28;20060;-81
2024/01/20 09:06:55;;;;;;;37.70;20.87;;;0.50;90.10;;;;;;5045514;28;20037;-81
2024/01/20 09:09:21;;;;;;;39.30;20.37;;;0.50;90.10;;;;;;5034037;28;20072;-81
2024/01/20 09:11:50;;;;;;;35.83;19.97;;;0.50;90.20;;;;;;5024811;28;20099;-81
2024/01/20 09:14:16;;;;;;;36.10;18.73;;;0.50;90.20;;;;;;5014340;28;20040;-81
2024/01/20 09:16:41;;;;;;;41.03;20.17;;;0.50;90.20;;;;;;5020048;28;20049;-80
2024/01/20 09:19:07;;;;;;;41.13;20.67;;;0.50;90.20;;;;;;5001945;28;20128;-81
2024/01/20 09:21:35;;;;;;;40.00;19.27;;;0.50;90.20;;;;;;5017557;28;20037;-82
2024/01/20 09:24:01;;;;;;;40.63;21.00;;;0.50;90.20;;;;;;5016069;28;20775;-81
2024/01/20 09:26:27;;;;;;;34.73;19.63;;;0.50;90.20;;;;;;5016090;28;20037;-81
2024/01/20 09:28:52;;;;;;;40.07;20.50;;;0.50;90.20;;;;;;5015301;28;20507;-81
2024/01/20 09:31:18;;;;;;;36.17;18.80;;;0.50;90.20;;;;;;5022325;28;20045;-81
2024/01/20 09:33:45;;;;;;;40.53;21.97;;;0.60;90.20;;;;;;5000269;28;20041;-81
2024/01/20 09:36:11;;;;;;;38.47;19.77;;;0.50;90.20;;;;;;5005975;28;20030;-86
2024/01/20 09:38:37;;;;;;;39.80;20.20;;;0.50;90.20;;;;;;5022087;28;20053;-87
2024/01/20 09:41:09;;;;;;;35.37;18.53;;;0.50;90.20;;;;;;5011478;28;20038;-86
2024/01/20 09:43:37;;;;;;;34.90;19.83;;;0.60;90.30;;;;;;5008136;28;20041;-88
2024/01/20 09:46:03;;;;;;;34.83;18.50;;;0.60;90.30;;;;;;5017328;28;20042;-87
2024/01/20 09:48:28;;;;;;;36.03;20.17;;;0.60;90.30;;;;;;5019853;28;20045;-87
2024/01/20 09:50:54;;;;;;;46.07;22.77;;;0.60;90.30;;;;;;5008008;28;20069;-87
2024/01/20 09:53:20;;;;;;;41.93;20.50;;;0.60;90.30;;;;;;4999703;28;20068;-87
2024/01/20 09:55:46;;;;;;;37.90;21.23;;;0.60;90.30;;;;;;5000284;28;20088;-87
2024/01/20 09:58:13;;;;;;;38.10;21.33;;;0.60;90.30;;;;;;5018206;28;20041;-87
2024/01/20 10:00:40;;;;;;;37.87;19.00;;;0.60;90.30;;;;;;5019053;28;20057;-85
2024/01/20 10:03:08;;;;;;;38.43;19.77;;;0.70;90.30;;;;;;5000354;28;20095;-87
2024/01/20 10:05:34;;;;;;;36.20;19.00;;;0.70;90.30;;;;;;5000661;28;20049;-86
2024/01/20 10:08:00;;;;;;;35.20;19.33;;;0.70;90.30;;;;;;5003012;28;20401;-86
2024/01/20 10:10:26;;;;;;;40.50;20.60;;;0.70;90.30;;;;;;5020588;28;20045;-86
2024/01/20 10:12:55;;;;;;;41.30;21.43;;;0.70;90.30;;;;;;5034717;28;20036;-85
2024/01/20 10:15:22;;;;;;;35.87;20.23;;;0.70;90.30;;;;;;4998855;28;20184;-86
2024/01/20 10:17:48;;;;;;;40.17;21.27;;;1.00;90.40;;;;;;5020312;28;20121;-86
2024/01/20 10:20:24;;;;;;;40.40;19.30;;;0.70;90.30;;;;;;5015096;28;20038;-86
2024/01/20 10:22:51;;;;;;;39.03;19.23;;;0.70;90.40;;;;;;5033093;28;20040;-86
2024/01/20 10:25:21;;;;;;;34.33;18.73;;;0.70;90.30;;;;;;4999189;28;20063;-85
2024/01/20 10:27:47;;;;;;;32.27;18.00;;;1.00;90.40;;;;;;5013287;28;20029;-85
2024/01/20 10:30:16;;;;;;;34.13;18.03;;;0.70;90.30;;;;;;4996999;28;20033;-86
2024/01/20 10:32:41;;;;;;;39.77;19.53;;;0.80;90.40;;;;;;4998029;28;20038;-85
2024/01/20 10:35:10;;;;;;;34.73;18.60;;;0.80;90.40;;;;;;5013716;28;20049;-85
2024/01/20 10:37:45;;;;;;;31.43;18.27;;;0.80;90.30;;;;;;5002660;28;20026;-85
2024/01/20 10:40:12;;;;;;;35.00;18.50;;;0.80;90.40;;;;;;5004246;28;20034;-86
2024/01/20 10:42:45;;;;;;;37.27;18.33;;;0.80;90.30;;;;;;5016034;28;20073;-86
2024/01/20 10:45:17;;;;;;;37.13;19.30;;;0.80;90.40;;;;;;5016837;28;20034;-87
2024/01/20 10:47:49;;;;;;;40.63;20.70;;;0.80;90.30;;;;;;5004865;28;20054;-86
2024/01/20 10:50:16;;;;;;;35.30;19.27;;;0.80;90.40;;;;;;5003045;28;20041;-86
2024/01/20 10:52:42;;;;;;;36.13;20.97;;;0.90;90.40;;;;;;5002900;28;20444;-86
2024/01/20 10:55:09;;;;;;;36.03;19.40;;;0.80;90.30;;;;;;5020393;28;20099;-86
2024/01/20 10:57:35;;;;;;;36.33;18.10;;;0.90;90.40;;;;;;5003046;28;20117;-86
2024/01/20 11:00:01;;;;;;;36.47;20.30;;;0.90;90.40;;;;;;5016566;28;20129;-85
2024/01/20 11:02:27;;;;;;;37.20;20.07;;;0.90;90.30;;;;;;5004070;28;20042;-85
2024/01/20 11:04:53;;;;;;;32.37;19.43;;;0.90;90.30;;;;;;5007199;28;20172;-86
2024/01/20 11:07:28;;;;;;;34.30;19.23;;;0.90;90.30;;;;;;5026293;28;20041;-85
2024/01/20 11:09:58;;;;;;;38.70;20.47;;;0.90;90.30;;;;;;5020136;28;20038;-85
2024/01/20 11:12:25;;;;;;;35.13;18.57;;;0.90;90.30;;;;;;5025817;28;20053;-85
2024/01/20 11:14:52;;;;;;;38.27;20.37;;;0.90;90.30;;;;;;5028758;28;20058;-85
2024/01/20 11:17:18;;;;;;;40.97;20.60;;;0.90;90.30;;;;;;5005805;28;20459;-87
2024/01/20 11:19:44;;;;;;;65.87;22.27;;;0.90;90.30;;;;;;5006050;28;20076;-85
2024/01/20 11:22:33;;;;;;;47.33;21.77;;;0.90;90.30;;;;;;5020737;28;20493;-85
2024/01/20 11:25:04;;;;;;;46.37;20.90;;;1.00;90.40;;;;;;5019133;28;20050;-86
2024/01/20 11:27:29;;;;;;;42.33;20.70;;;1.00;90.40;;;;;;5003747;28;20034;-86
2024/01/20 11:30:08;;;;;;;35.00;18.77;;;1.00;90.40;;;;;;5001169;28;20084;-85
2024/01/20 11:32:34;;;;;;;37.80;21.27;;;1.00;90.50;;;;;;5018582;28;20049;-86
2024/01/20 11:35:00;;;;;;;38.50;20.37;;;1.00;90.40;;;;;;5003481;28;20208;-85
2024/01/20 11:37:27;;;;;;;36.93;19.93;;;1.00;90.40;;;;;;5020381;28;20034;-85
2024/01/20 11:40:07;;;;;;;38.90;19.70;;;1.00;90.40;;;;;;5016556;28;20050;-85
2024/01/20 11:42:35;;;;;;;36.90;20.57;;;1.00;90.40;;;;;;5001061;28;20129;-86
2024/01/20 11:45:05;;;;;;;39.23;21.03;;;1.00;90.40;;;;;;5001372;28;20041;-86
2024/01/20 11:47:31;;;;;;;38.60;20.87;;;1.10;90.50;;;;;;5024397;28;20058;-81
2024/01/20 11:49:58;;;;;;;37.17;20.53;;;1.10;90.50;;;;;;5021054;28;20049;-81
2024/01/20 11:52:25;;;;;;;34.43;20.60;;;1.10;90.50;;;;;;5023919;28;20065;-81
2024/01/20 11:54:56;;;;;;;37.50;20.70;;;1.10;90.50;;;;;;5023759;28;20042;-81
2024/01/20 11:57:24;;;;;;;33.97;19.97;;;1.70;90.70;;;;;;5024179;28;20034;-81
2024/01/20 11:59:50;;;;;;;36.10;20.13;;;1.10;90.50;;;;;;5001418;28;20133;-81
2024/01/20 12:02:16;;;;;;;33.33;18.13;;;1.10;90.50;;;;;;5022208;28;20077;-82
2024/01/20 12:04:42;;;;;;;32.90;19.37;;;1.20;90.50;;;;;;5022627;28;20485;-82
2024/01/20 12:07:08;;;;;;;34.33;19.30;;;1.20;90.50;;;;;;5018899;28;20044;-82
2024/01/20 12:09:34;;;;;;;35.37;20.20;;;1.20;90.50;;;;;;5003289;28;20038;-82
2024/01/20 12:12:04;;;;;;;32.87;17.97;;;1.20;90.50;;;;;;5024741;28;20063;-82
2024/01/20 12:14:32;;;;;;;33.67;18.93;;;1.20;90.50;;;;;;5018353;28;20033;-81
2024/01/20 12:16:58;;;;;;;31.57;18.07;;;1.30;90.50;;;;;;5020457;28;20029;-81
2024/01/20 12:19:27;;;;;;;32.67;18.40;;;1.30;90.60;;;;;;5021732;28;20033;-81
2024/01/20 12:21:52;;;;;;;37.40;20.10;;;1.30;90.60;;;;;;5006077;28;20061;-81
2024/01/20 12:24:18;;;;;;;33.73;19.07;;;1.40;90.70;;;;;;5024622;28;20052;-80
2024/01/20 12:26:44;;;;;;;125.27;31.37;;;1.40;90.70;;;;;;5008513;28;20042;-80
2024/01/20 12:29:09;;;;;;;38.47;19.63;;;1.50;90.80;;;;;;5021611;28;20100;-80
2024/01/20 12:31:35;;;;;;;34.63;18.40;;;1.50;90.80;;;;;;5026219;28;20151;-80
2024/01/20 12:34:01;;;;;;;32.73;18.47;;;1.60;90.80;;;;;;5023453;28;20037;-80